M I D A S
Marine Information and Data Acquisition System
Tripno 1747 of the Zeeleeuw from 2009-08-12 06:34:27 to 2009-08-12 12:35:58
Back to CruiseResearch ActivitiesStationsMapUnderway DataData graphs

EquipmentUnitsComment
TimeDGPSUTC
LatitudeDGPSDM.mWGS84
LongitudeDGPSDM.mWGS84
HeadingGyrodeg 
SOGDGPSknotsSpeed over ground
COGDGPSdegCourse over ground
DepthEcho soundermeters200 kHz
Missing or incorrect values are displayed as -999
Navigation data collected by the RV Zeeleeuw from 2009-08-12 06:28:51 to 2009-08-12 12:41:58
                                                                                    Next 1000 lines
Time Latitude Longitude Heading SOG COG Depth
2009-08-12 06:29:00 51°13.685 2°55.91 127.4 0.1 176 9.6
2009-08-12 06:29:05 51°13.685 2°55.91 127.4 0.1 186 9.6
2009-08-12 06:29:10 51°13.685 2°55.91 127.4 -999 191 9.6
2009-08-12 06:29:16 51°13.686 2°55.91 127.4 -999 214 9.6
2009-08-12 06:29:20 51°13.686 2°55.91 127.4 -999 354 9.6
2009-08-12 06:29:25 51°13.686 2°55.91 127.4 -999 203 9.6
2009-08-12 06:29:30 51°13.686 2°55.91 127.4 -999 69 9.6
2009-08-12 06:29:35 51°13.685 2°55.91 127.4 -999 306 9.6
2009-08-12 06:29:41 51°13.685 2°55.91 127.4 -999 357 9.5
2009-08-12 06:29:45 51°13.686 2°55.91 127.4 -999 219 9.6
2009-08-12 06:29:50 51°13.686 2°55.91 127.4 -999 188 9.5
2009-08-12 06:29:55 51°13.686 2°55.91 127.4 0.1 196 9.6
2009-08-12 06:30:00 51°13.686 2°55.91 127.4 0.1 195 9.6
2009-08-12 06:30:05 51°13.686 2°55.91 127.4 -999 195 9.6
2009-08-12 06:30:10 51°13.686 2°55.91 127.4 -999 186 9.5
2009-08-12 06:30:15 51°13.686 2°55.91 127.4 0.1 195 9.6
2009-08-12 06:30:20 51°13.686 2°55.91 127.4 -999 178 9.6
2009-08-12 06:30:25 51°13.686 2°55.91 127.4 -999 151 9.6
2009-08-12 06:30:30 51°13.686 2°55.91 127.4 -999 10 9.5
2009-08-12 06:30:35 51°13.686 2°55.909 127.4 -999 332 9.5
2009-08-12 06:30:40 51°13.686 2°55.909 127.3 -999 350 9.5
2009-08-12 06:30:45 51°13.686 2°55.909 127.3 -999 21 9.5
2009-08-12 06:30:50 51°13.686 2°55.909 127.3 -999 168 9.5
2009-08-12 06:30:55 51°13.686 2°55.909 127.3 0.1 185 9.6
2009-08-12 06:31:00 51°13.686 2°55.91 127.5 -999 193 9.5
2009-08-12 06:31:05 51°13.687 2°55.91 127.8 -999 183 9.5
2009-08-12 06:31:10 51°13.687 2°55.91 127.8 -999 43 9.5
2009-08-12 06:31:15 51°13.687 2°55.91 127.8 -999 48 9.6
2009-08-12 06:31:20 51°13.687 2°55.91 127.8 -999 49 9.5
2009-08-12 06:31:25 51°13.688 2°55.91 127.7 -999 2 9.5
2009-08-12 06:31:30 51°13.688 2°55.91 127.6 -999 131 9.6
2009-08-12 06:31:35 51°13.688 2°55.91 127.5 -999 171 9.5
2009-08-12 06:31:40 51°13.688 2°55.91 127.4 -999 165 9.5
2009-08-12 06:31:45 51°13.688 2°55.91 127.4 -999 5 9.5
2009-08-12 06:31:50 51°13.689 2°55.91 127.4 -999 295 9.5
2009-08-12 06:31:55 51°13.689 2°55.91 127.5 -999 240 9.5
2009-08-12 06:32:00 51°13.688 2°55.91 127.6 -999 195 9.5
2009-08-12 06:32:05 51°13.688 2°55.91 127.7 -999 191 9.5
2009-08-12 06:32:09 51°13.688 2°55.91 127.7 -999 166 9.5
2009-08-12 06:32:15 51°13.688 2°55.91 127.8 -999 106 9.5
2009-08-12 06:32:20 51°13.688 2°55.91 127.8 -999 183 9.5
2009-08-12 06:32:25 51°13.688 2°55.91 127.8 -999 209 9.5
2009-08-12 06:32:31 51°13.688 2°55.91 127.8 -999 227 9.5
2009-08-12 06:32:35 51°13.689 2°55.91 127.8 -999 304 9.5
2009-08-12 06:32:40 51°13.689 2°55.91 127.8 -999 347 9.5
2009-08-12 06:32:45 51°13.689 2°55.91 127.8 -999 23 9.5
2009-08-12 06:32:51 51°13.689 2°55.91 127.8 -999 148 9.5
2009-08-12 06:32:55 51°13.689 2°55.91 127.8 -999 59 9.5
2009-08-12 06:33:00 51°13.689 2°55.91 127.8 -999 108 9.5
2009-08-12 06:33:05 51°13.689 2°55.91 127.8 -999 204 9.5
2009-08-12 06:33:10 51°13.689 2°55.91 127.8 -999 193 9.5
2009-08-12 06:33:15 51°13.688 2°55.91 127.8 -999 182 9.5
2009-08-12 06:33:20 51°13.688 2°55.91 127.8 -999 193 9.5
2009-08-12 06:33:25 51°13.688 2°55.91 127.8 -999 201 9.5
2009-08-12 06:33:30 51°13.688 2°55.91 127.8 -999 305 9.5
2009-08-12 06:33:35 51°13.688 2°55.91 127.8 -999 324 9.5
2009-08-12 06:33:41 51°13.688 2°55.91 127.8 -999 172 9.5
2009-08-12 06:33:45 51°13.688 2°55.91 127.8 -999 239 9.5
2009-08-12 06:33:50 51°13.689 2°55.91 127.8 -999 324 9.5
2009-08-12 06:33:55 51°13.689 2°55.911 127.8 -999 318 9.5
2009-08-12 06:34:01 51°13.689 2°55.911 127.8 -999 7 9.5
2009-08-12 06:34:05 51°13.689 2°55.911 127.8 -999 351 9.5
2009-08-12 06:34:10 51°13.689 2°55.91 127.8 -999 211 9.5
2009-08-12 06:34:15 51°13.688 2°55.91 127.8 0.1 197 9.5
2009-08-12 06:34:21 51°13.688 2°55.91 127.8 0.1 193 9.5
2009-08-12 06:34:25 51°13.688 2°55.91 127.9 -999 190 9.5
2009-08-12 06:34:30 51°13.688 2°55.911 127.9 -999 65 9.5
2009-08-12 06:34:35 51°13.688 2°55.911 127.9 -999 7 9.5
2009-08-12 06:34:40 51°13.688 2°55.911 127.9 -999 340 9.5
2009-08-12 06:34:45 51°13.688 2°55.911 127.9 -999 320 9.5
2009-08-12 06:34:50 51°13.688 2°55.911 127.9 -999 10 9.5
2009-08-12 06:34:55 51°13.688 2°55.911 127.9 -999 179 9.5
2009-08-12 06:35:00 51°13.688 2°55.911 127.9 -999 357 9.5
2009-08-12 06:35:05 51°13.688 2°55.911 127.9 -999 326 9.5
2009-08-12 06:35:10 51°13.688 2°55.911 127.9 -999 23 9.5
2009-08-12 06:35:15 51°13.688 2°55.911 127.9 -999 317 9.5
2009-08-12 06:35:20 51°13.688 2°55.911 127.8 -999 237 9.5
2009-08-12 06:35:25 51°13.688 2°55.911 127.8 -999 84 9.5
2009-08-12 06:35:31 51°13.687 2°55.911 127.8 -999 298 9.5
2009-08-12 06:35:35 51°13.687 2°55.911 127.8 -999 305 9.5
2009-08-12 06:35:40 51°13.687 2°55.911 127.8 -999 340 9.5
2009-08-12 06:35:45 51°13.687 2°55.91 127.9 -999 314 9.5
2009-08-12 06:35:50 51°13.687 2°55.91 128.1 -999 304 9.4
2009-08-12 06:35:55 51°13.686 2°55.91 128.3 -999 264 9.4
2009-08-12 06:36:01 51°13.686 2°55.91 128.6 -999 254 9.5
2009-08-12 06:36:05 51°13.686 2°55.91 128.8 -999 164 9.4
2009-08-12 06:36:10 51°13.686 2°55.91 129 -999 57 9.5
2009-08-12 06:36:15 51°13.687 2°55.91 129 -999 36 9.5
2009-08-12 06:36:20 51°13.687 2°55.91 129 -999 118 9.5
2009-08-12 06:36:25 51°13.687 2°55.91 129 -999 153 9.5
2009-08-12 06:36:30 51°13.687 2°55.91 128.9 -999 28 9.5
2009-08-12 06:36:35 51°13.687 2°55.91 128.8 -999 17 9.5
2009-08-12 06:36:40 51°13.686 2°55.91 128.8 -999 34 9.5
2009-08-12 06:36:45 51°13.686 2°55.91 128.8 -999 34 9.5
2009-08-12 06:36:50 51°13.687 2°55.911 128.6 0.1 65 9.5
2009-08-12 06:36:55 51°13.687 2°55.911 128.3 -999 158 9.5
2009-08-12 06:37:00 51°13.687 2°55.911 127.6 -999 98 9.4
2009-08-12 06:37:05 51°13.687 2°55.911 127.1 -999 302 9.4
2009-08-12 06:37:10 51°13.687 2°55.911 126.7 -999 209 9.4
2009-08-12 06:37:15 51°13.687 2°55.911 126.3 -999 210 9.5
2009-08-12 06:37:20 51°13.687 2°55.911 125.7 -999 218 9.4
2009-08-12 06:37:25 51°13.687 2°55.911 125.1 0.1 204 -999
2009-08-12 06:37:30 51°13.687 2°55.911 124.4 0.1 192 9.4
2009-08-12 06:37:35 51°13.686 2°55.91 123.6 0.1 193 9.4
2009-08-12 06:37:40 51°13.686 2°55.91 122.7 0.1 197 9.4
2009-08-12 06:37:45 51°13.686 2°55.91 121.8 0.1 190 9.4
2009-08-12 06:37:50 51°13.686 2°55.91 120.7 0.1 196 9.4
2009-08-12 06:37:55 51°13.686 2°55.91 119.7 0.1 192 9.4
2009-08-12 06:38:00 51°13.686 2°55.91 118.5 0.1 193 9.4
2009-08-12 06:38:05 51°13.686 2°55.91 117.7 0.1 203 9.4
2009-08-12 06:38:09 51°13.686 2°55.91 116.4 0.1 217 9.4
2009-08-12 06:38:16 51°13.686 2°55.91 115.5 0.1 206 9.4
2009-08-12 06:38:20 51°13.685 2°55.91 114.6 0.1 200 9.4
2009-08-12 06:38:25 51°13.685 2°55.91 113.7 0.1 226 9.4
2009-08-12 06:38:29 51°13.685 2°55.91 112.8 0.1 193 9.4
2009-08-12 06:38:35 51°13.685 2°55.91 112.2 0.1 205 9.4
2009-08-12 06:38:40 51°13.685 2°55.91 111.1 0.1 231 9.4
2009-08-12 06:38:45 51°13.685 2°55.91 110.4 -999 248 9.4
2009-08-12 06:38:50 51°13.685 2°55.909 109.8 0.2 286 9.4
2009-08-12 06:38:55 51°13.685 2°55.908 109.4 0.4 288 9.4
2009-08-12 06:39:00 51°13.685 2°55.907 109.2 0.8 288 9.4
2009-08-12 06:39:05 51°13.686 2°55.904 109.1 1.1 288 9.4
2009-08-12 06:39:10 51°13.687 2°55.901 109.1 1.5 292 9.4
2009-08-12 06:39:15 51°13.688 2°55.898 109.1 1.8 290 9.4
2009-08-12 06:39:20 51°13.689 2°55.893 108.8 2.1 291 8.5
2009-08-12 06:39:25 51°13.69 2°55.889 108.1 2.3 290 5
2009-08-12 06:39:31 51°13.691 2°55.883 107 2.4 291 -999
2009-08-12 06:39:36 51°13.692 2°55.878 105.3 2.5 288 -999
2009-08-12 06:39:42 51°13.693 2°55.871 103.9 2.6 287 -999
2009-08-12 06:39:48 51°13.695 2°55.864 102.4 2.6 285 -999
2009-08-12 06:39:53 51°13.695 2°55.859 100.6 2.7 284 -999
2009-08-12 06:39:59 51°13.696 2°55.851 99.1 2.8 282 -999
2009-08-12 06:40:04 51°13.697 2°55.845 97.5 2.8 281 -999
2009-08-12 06:40:09 51°13.698 2°55.839 95.5 2.7 279 -999
2009-08-12 06:40:14 51°13.698 2°55.833 93.9 2.7 278 -999
2009-08-12 06:40:19 51°13.698 2°55.827 92.3 2.7 276 -999
2009-08-12 06:40:24 51°13.699 2°55.821 90.8 2.7 275 -999
2009-08-12 06:40:29 51°13.699 2°55.815 89.2 2.7 273 -999
2009-08-12 06:40:34 51°13.699 2°55.809 87.6 2.7 272 -999
2009-08-12 06:40:39 51°13.699 2°55.804 86 2.6 270 -999
2009-08-12 06:40:44 51°13.699 2°55.798 84.3 2.6 269 -999
2009-08-12 06:40:49 51°13.699 2°55.793 82.8 2.5 268 -999
2009-08-12 06:40:54 51°13.699 2°55.787 81.2 2.3 269 -999
2009-08-12 06:40:59 51°13.699 2°55.783 79.8 2 270 -999
2009-08-12 06:41:04 51°13.699 2°55.78 78.4 1.3 269 -999
2009-08-12 06:41:09 51°13.699 2°55.778 75.4 0.8 281 -999
2009-08-12 06:41:14 51°13.699 2°55.777 70.5 0.6 287 -999
2009-08-12 06:41:19 51°13.699 2°55.776 65.5 0.5 297 -999
2009-08-12 06:41:23 51°13.7 2°55.776 61.9 0.4 292 12.5
2009-08-12 06:41:28 51°13.7 2°55.775 58.9 0.4 293 12.5
2009-08-12 06:41:33 51°13.7 2°55.774 56.8 0.4 273 12.6
2009-08-12 06:41:37 51°13.7 2°55.773 54.1 0.6 264 12.6
2009-08-12 06:41:42 51°13.699 2°55.771 51.4 0.7 249 12.6
2009-08-12 06:41:48 51°13.699 2°55.769 48.7 0.9 246 12.6
2009-08-12 06:41:52 51°13.698 2°55.768 46 1 237 12.8
2009-08-12 06:41:57 51°13.697 2°55.766 43.6 1.2 234 12.9
2009-08-12 06:42:02 51°13.696 2°55.763 41.5 1.4 229 13
2009-08-12 06:42:06 51°13.695 2°55.761 39.5 1.5 227 12.9
2009-08-12 06:42:12 51°13.693 2°55.759 37.6 1.4 227 12.8
2009-08-12 06:42:16 51°13.692 2°55.757 35.8 1.3 226 4.8
2009-08-12 06:42:21 51°13.691 2°55.755 34.2 1 232 4.8
2009-08-12 06:42:27 51°13.691 2°55.754 32.4 0.4 244 4.6
2009-08-12 06:42:32 51°13.692 2°55.754 29.9 0.5 331 4.5
2009-08-12 06:42:37 51°13.693 2°55.754 24.8 0.9 359 4.5
2009-08-12 06:42:41 51°13.694 2°55.754 18.8 1.3 358 -999
2009-08-12 06:42:46 51°13.696 2°55.754 13.4 1.7 359 13.3
2009-08-12 06:42:51 51°13.699 2°55.753 6.3 1.9 351 13.3
2009-08-12 06:42:56 51°13.702 2°55.752 359.3 2.1 349 13.3
2009-08-12 06:43:01 51°13.705 2°55.751 353 2.3 343 13.1
2009-08-12 06:43:05 51°13.707 2°55.749 347 2.5 340 13.1
2009-08-12 06:43:10 51°13.711 2°55.747 340.8 2.7 334 13.1
2009-08-12 06:43:15 51°13.714 2°55.744 335.1 2.9 331 13
2009-08-12 06:43:20 51°13.718 2°55.74 330.8 3.2 329 13.1
2009-08-12 06:43:25 51°13.722 2°55.737 328.8 3.3 328 12.9
2009-08-12 06:43:30 51°13.726 2°55.733 328 3.6 327 12.7
2009-08-12 06:43:35 51°13.731 2°55.728 327.5 3.8 327 12.6
2009-08-12 06:43:40 51°13.735 2°55.724 327.4 3.9 327 12.7
2009-08-12 06:43:45 51°13.74 2°55.719 327.4 4 326 12.5
2009-08-12 06:43:50 51°13.744 2°55.714 327.4 4.1 327 12.5
2009-08-12 06:43:55 51°13.749 2°55.709 327.7 4.2 327 12.6
2009-08-12 06:44:00 51°13.754 2°55.704 328 4.3 328 12.5
2009-08-12 06:44:05 51°13.759 2°55.699 328.2 4.3 328 12.6
2009-08-12 06:44:10 51°13.764 2°55.693 328.6 4.4 328 12.5
2009-08-12 06:44:15 51°13.769 2°55.688 328.8 4.4 328 12.5
2009-08-12 06:44:20 51°13.774 2°55.683 328.9 4.5 328 12.3
2009-08-12 06:44:25 51°13.78 2°55.677 329 4.5 328 12.2
2009-08-12 06:44:30 51°13.785 2°55.672 329.5 4.6 329 12.4
2009-08-12 06:44:35 51°13.791 2°55.667 330.1 4.6 330 12.4
2009-08-12 06:44:41 51°13.797 2°55.661 330.8 4.7 330 12.3
2009-08-12 06:44:45 51°13.802 2°55.657 331.7 4.7 331 12.4
2009-08-12 06:44:50 51°13.808 2°55.652 332.7 4.6 332 12.2
2009-08-12 06:44:55 51°13.813 2°55.647 333.5 4.6 332 12.5
2009-08-12 06:45:00 51°13.819 2°55.643 333.9 4.6 334 12
2009-08-12 06:45:05 51°13.824 2°55.639 334.1 4.5 333 12
2009-08-12 06:45:10 51°13.83 2°55.635 336 4.4 338 12.2
2009-08-12 06:45:15 51°13.836 2°55.632 339.6 4.3 340 11.8
2009-08-12 06:45:21 51°13.842 2°55.629 344 4.1 346 11.8
2009-08-12 06:45:25 51°13.847 2°55.627 348.7 4 348 11.7
2009-08-12 06:45:30 51°13.852 2°55.626 353.4 3.8 354 11.7
2009-08-12 06:45:35 51°13.857 2°55.626 358.1 3.7 358 11.8
2009-08-12 06:45:41 51°13.863 2°55.626 3 3.7 2 11.8
2009-08-12 06:45:45 51°13.867 2°55.627 7.5 3.7 6 11.2
2009-08-12 06:45:50 51°13.872 2°55.628 11.5 3.7 8 10.8
2009-08-12 06:45:55 51°13.877 2°55.629 14.4 3.7 11 11
2009-08-12 06:46:00 51°13.882 2°55.631 15.6 3.7 9 10.9
2009-08-12 06:46:05 51°13.887 2°55.632 15.2 3.6 10 11.6
2009-08-12 06:46:10 51°13.892 2°55.633 12.7 3.5 6 11.8
2009-08-12 06:46:15 51°13.897 2°55.634 9 3.4 4 11.6
2009-08-12 06:46:20 51°13.901 2°55.634 5.2 3.3 1 12
2009-08-12 06:46:25 51°13.906 2°55.634 1.5 3.3 359 12.1
2009-08-12 06:46:30 51°13.91 2°55.633 358.6 3.1 356 12.1
2009-08-12 06:46:35 51°13.914 2°55.633 356.2 3.1 355 12
2009-08-12 06:46:40 51°13.919 2°55.632 354.3 3 353 12.2
2009-08-12 06:46:45 51°13.923 2°55.631 352.4 2.9 352 11.8
2009-08-12 06:46:50 51°13.926 2°55.63 350.8 2.8 351 12.1
2009-08-12 06:46:55 51°13.93 2°55.629 349.2 2.7 350 12
2009-08-12 06:47:01 51°13.935 2°55.628 347.8 2.7 348 11.7
2009-08-12 06:47:05 51°13.937 2°55.627 346.3 2.6 347 11.6
2009-08-12 06:47:10 51°13.941 2°55.626 344.9 2.5 346 11.9
2009-08-12 06:47:15 51°13.944 2°55.624 343.4 2.4 344 11.9
2009-08-12 06:47:21 51°13.948 2°55.622 341.9 2.3 343 11.9
2009-08-12 06:47:25 51°13.95 2°55.621 340.4 2.3 342 11.9
2009-08-12 06:47:30 51°13.953 2°55.619 338.9 2.2 341 11.9
2009-08-12 06:47:35 51°13.956 2°55.618 337.6 2.2 340 12
2009-08-12 06:47:41 51°13.959 2°55.616 336.5 2.1 339 12.1
2009-08-12 06:47:45 51°13.961 2°55.614 335.4 2.1 338 12.1
2009-08-12 06:47:50 51°13.964 2°55.613 334.4 2 336 12
2009-08-12 06:47:55 51°13.966 2°55.611 333.3 2 335 12
2009-08-12 06:48:00 51°13.969 2°55.609 332.4 2.1 334 12.2
2009-08-12 06:48:05 51°13.971 2°55.606 331.5 2.1 333 12.2
2009-08-12 06:48:10 51°13.974 2°55.604 330.9 2.3 332 12
2009-08-12 06:48:15 51°13.977 2°55.601 330.3 2.5 332 12.3
2009-08-12 06:48:20 51°13.98 2°55.598 330.2 2.7 331 12.4
2009-08-12 06:48:25 51°13.984 2°55.595 330.2 2.9 332 12.3
2009-08-12 06:48:30 51°13.988 2°55.592 330.3 3 330 12.3
2009-08-12 06:48:35 51°13.992 2°55.588 329.7 3.3 330 12.3
2009-08-12 06:48:41 51°13.997 2°55.583 329 3.7 329 12.1
2009-08-12 06:48:45 51°14.001 2°55.58 328.1 3.9 328 12.3
2009-08-12 06:48:50 51°14.006 2°55.574 326.7 4.4 325 12.3
2009-08-12 06:48:55 51°14.011 2°55.568 325.4 4.7 324 12.3
2009-08-12 06:49:01 51°14.017 2°55.56 324.3 5 323 12.2
2009-08-12 06:49:05 51°14.022 2°55.554 323.6 5.3 322 12.3
2009-08-12 06:49:10 51°14.028 2°55.547 323.1 5.6 322 12.3
2009-08-12 06:49:15 51°14.034 2°55.539 322.9 5.9 322 11.7
2009-08-12 06:49:21 51°14.042 2°55.529 322.7 6.2 321 11.8
2009-08-12 06:49:25 51°14.048 2°55.521 322.7 6.4 322 12.1
2009-08-12 06:49:29 51°14.053 2°55.514 322.7 6.7 322 12.1
2009-08-12 06:49:35 51°14.062 2°55.503 323 7 322 12.3
2009-08-12 06:49:40 51°14.07 2°55.493 323.5 7.2 323 12.2
2009-08-12 06:49:45 51°14.078 2°55.484 323.8 7.3 322 12.2
2009-08-12 06:49:50 51°14.087 2°55.473 323.8 7.5 323 12.1
2009-08-12 06:49:55 51°14.095 2°55.463 323.6 7.7 322 12.1
2009-08-12 06:50:00 51°14.104 2°55.453 323.3 7.8 322 12.1
2009-08-12 06:50:05 51°14.112 2°55.442 323.8 7.9 323 12.2
2009-08-12 06:50:10 51°14.121 2°55.431 324.1 8 322 12.2
2009-08-12 06:50:15 51°14.13 2°55.421 324.1 8.1 323 12.1
2009-08-12 06:50:20 51°14.139 2°55.41 323.8 8.2 322 12
2009-08-12 06:50:25 51°14.148 2°55.399 323.6 8.2 323 12.1
2009-08-12 06:50:30 51°14.157 2°55.388 323.9 8.3 322 12.1
2009-08-12 06:50:35 51°14.166 2°55.376 323.2 8.3 322 12
2009-08-12 06:50:40 51°14.176 2°55.365 322.9 8.4 322 11.9
2009-08-12 06:50:45 51°14.185 2°55.354 322.8 8.4 322 12.1
2009-08-12 06:50:50 51°14.194 2°55.342 322.7 8.4 321 12.1
2009-08-12 06:50:55 51°14.203 2°55.33 322.4 8.4 321 12.1
2009-08-12 06:51:00 51°14.212 2°55.318 321.9 8.5 319 12.1
2009-08-12 06:51:05 51°14.221 2°55.306 321.1 8.5 319 12.1
2009-08-12 06:51:10 51°14.229 2°55.293 319.9 8.5 317 12.1
2009-08-12 06:51:15 51°14.238 2°55.28 318.1 8.6 316 12.2
2009-08-12 06:51:20 51°14.246 2°55.266 316.3 8.7 314 12.2
2009-08-12 06:51:25 51°14.255 2°55.252 314.5 8.7 313 12.2
2009-08-12 06:51:30 51°14.263 2°55.238 313.7 8.8 313 11.9
2009-08-12 06:51:35 51°14.271 2°55.223 312.9 8.8 311 12
2009-08-12 06:51:40 51°14.279 2°55.208 311.6 8.9 310 12.1
2009-08-12 06:51:45 51°14.287 2°55.193 311.2 9 310 11.9
2009-08-12 06:51:50 51°14.295 2°55.178 311.5 9.1 311 11.6
2009-08-12 06:51:55 51°14.304 2°55.162 311.7 9.2 310 11.4
2009-08-12 06:52:01 51°14.313 2°55.143 311.2 9.3 310 11.6
2009-08-12 06:52:05 51°14.32 2°55.131 311.2 9.4 311 11.7
2009-08-12 06:52:10 51°14.329 2°55.114 311.5 9.6 310 12.1
2009-08-12 06:52:15 51°14.337 2°55.098 311.5 9.7 310 12.1
2009-08-12 06:52:20 51°14.346 2°55.081 311.3 9.8 310 11.5
2009-08-12 06:52:25 51°14.355 2°55.065 311.9 9.9 312 11.5
2009-08-12 06:52:30 51°14.365 2°55.049 313.5 10 314 11.5
2009-08-12 06:52:35 51°14.375 2°55.034 315 10.1 317 11.2
2009-08-12 06:52:41 51°14.388 2°55.016 318.6 10.1 319 11
2009-08-12 06:52:45 51°14.397 2°55.005 321.6 10.2 321 11.1
2009-08-12 06:52:50 51°14.408 2°54.991 324.3 10.4 324 11.1
2009-08-12 06:52:55 51°14.42 2°54.978 326.8 10.5 327 11.2
2009-08-12 06:53:00 51°14.433 2°54.966 329.4 10.6 328 11.3
2009-08-12 06:53:05 51°14.446 2°54.954 331.4 10.7 329 11.1
2009-08-12 06:53:10 51°14.458 2°54.941 331.1 10.8 327 11.3
2009-08-12 06:53:15 51°14.471 2°54.928 330.5 10.9 328 11.2
2009-08-12 06:53:20 51°14.484 2°54.915 330.6 11 329 11.1
2009-08-12 06:53:25 51°14.497 2°54.903 331.2 11.1 329 11.2
2009-08-12 06:53:30 51°14.511 2°54.89 331.6 11.3 330 11
2009-08-12 06:53:35 51°14.524 2°54.878 332.3 11.4 330 10.9
2009-08-12 06:53:40 51°14.538 2°54.865 332.9 11.4 330 10.8
2009-08-12 06:53:45 51°14.552 2°54.852 332.7 11.5 330 10.8
2009-08-12 06:53:50 51°14.565 2°54.839 332 11.5 329 10.7
2009-08-12 06:53:55 51°14.579 2°54.826 331.8 11.6 329 10.7
2009-08-12 06:54:00 51°14.593 2°54.813 332.1 11.6 330 10.6
2009-08-12 06:54:05 51°14.607 2°54.8 332.7 11.6 331 10.5
2009-08-12 06:54:09 51°14.618 2°54.79 332.8 11.7 330 10.6
2009-08-12 06:54:15 51°14.635 2°54.774 332.2 11.7 330 10.5
2009-08-12 06:54:21 51°14.652 2°54.759 332.2 11.7 330 10.6
2009-08-12 06:54:25 51°14.663 2°54.748 331.8 11.7 330 10.6
2009-08-12 06:54:30 51°14.677 2°54.735 331.8 11.7 330 10.5
2009-08-12 06:54:35 51°14.691 2°54.723 331.6 11.7 330 10.6
2009-08-12 06:54:41 51°14.708 2°54.707 331.3 11.6 330 10.5
2009-08-12 06:54:45 51°14.719 2°54.697 331.3 11.6 330 10.5
2009-08-12 06:54:50 51°14.733 2°54.684 330.8 11.6 329 10.7
2009-08-12 06:54:55 51°14.747 2°54.671 330.6 11.5 329 10.5
2009-08-12 06:55:00 51°14.761 2°54.658 330.6 11.5 330 10.5
2009-08-12 06:55:05 51°14.775 2°54.645 331.6 11.5 331 10.5
2009-08-12 06:55:10 51°14.789 2°54.633 332.6 11.5 332 10.3
2009-08-12 06:55:15 51°14.802 2°54.621 332.5 11.5 331 10.4
2009-08-12 06:55:20 51°14.817 2°54.61 332.4 11.4 333 10.4
2009-08-12 06:55:25 51°14.831 2°54.598 333.2 11.5 332 10.5
2009-08-12 06:55:30 51°14.845 2°54.586 333.4 11.5 332 10.4
2009-08-12 06:55:35 51°14.859 2°54.574 333.2 11.5 332 10.4
2009-08-12 06:55:40 51°14.873 2°54.562 333 11.5 333 10.6
2009-08-12 06:55:45 51°14.887 2°54.551 333.1 11.5 333 10.9
2009-08-12 06:55:51 51°14.904 2°54.537 333.2 11.6 333 10.9
2009-08-12 06:55:55 51°14.916 2°54.527 333.3 11.6 332 11
2009-08-12 06:56:00 51°14.93 2°54.515 332.7 11.6 332 11
2009-08-12 06:56:05 51°14.944 2°54.503 332.6 11.6 332 10.8
2009-08-12 06:56:10 51°14.958 2°54.491 332.7 11.6 332 11
2009-08-12 06:56:15 51°14.973 2°54.48 333 11.6 333 11.2
2009-08-12 06:56:21 51°14.99 2°54.465 333.1 11.6 332 11.2
2009-08-12 06:56:25 51°15.001 2°54.456 333 11.6 333 11.2
2009-08-12 06:56:30 51°15.015 2°54.444 332.8 11.6 332 11.4
2009-08-12 06:56:35 51°15.03 2°54.432 332.6 11.5 333 11.2
2009-08-12 06:56:41 51°15.047 2°54.418 332.9 11.5 332 11.2
2009-08-12 06:56:45 51°15.058 2°54.409 332.8 11.5 332 11.3
2009-08-12 06:56:50 51°15.072 2°54.396 332.3 11.5 332 11.4
2009-08-12 06:56:55 51°15.086 2°54.384 332.3 11.5 332 11.4
2009-08-12 06:57:01 51°15.103 2°54.37 331.5 11.5 331 11.3
2009-08-12 06:57:05 51°15.114 2°54.36 331.6 11.5 332 11.3
2009-08-12 06:57:10 51°15.128 2°54.348 332.3 11.5 332 11.4
2009-08-12 06:57:15 51°15.142 2°54.336 332.2 11.5 331 11.2
2009-08-12 06:57:20 51°15.156 2°54.324 331.8 11.5 331 11.5
2009-08-12 06:57:25 51°15.17 2°54.312 332.3 11.4 332 11.3
2009-08-12 06:57:30 51°15.183 2°54.3 332.6 11.5 331 11.3
2009-08-12 06:57:35 51°15.198 2°54.288 332.5 11.5 332 11.2
2009-08-12 06:57:40 51°15.212 2°54.276 332.6 11.4 332 11.2
2009-08-12 06:57:45 51°15.225 2°54.264 332.5 11.4 332 10.8
2009-08-12 06:57:50 51°15.239 2°54.252 332.4 11.4 331 10.6
2009-08-12 06:57:55 51°15.253 2°54.24 332.5 11.4 332 10.6
2009-08-12 06:58:00 51°15.267 2°54.227 332.5 11.5 331 10.2
2009-08-12 06:58:05 51°15.281 2°54.215 332.2 11.5 331 10.4
2009-08-12 06:58:11 51°15.298 2°54.201 332.1 11.4 330 10.1
2009-08-12 06:58:15 51°15.309 2°54.191 332.3 11.5 332 10.4
2009-08-12 06:58:20 51°15.323 2°54.179 332.6 11.5 331 10.2
2009-08-12 06:58:25 51°15.337 2°54.167 332.5 11.5 332 10.2
2009-08-12 06:58:29 51°15.348 2°54.157 332.2 11.4 331 10.4
2009-08-12 06:58:35 51°15.365 2°54.143 332.4 11.5 333 10.3
2009-08-12 06:58:40 51°15.379 2°54.131 332.9 11.4 332 10.2
2009-08-12 06:58:45 51°15.393 2°54.119 333 11.4 332 10.3
2009-08-12 06:58:50 51°15.406 2°54.107 332.7 11.5 331 10.4
2009-08-12 06:58:55 51°15.42 2°54.095 332.4 11.5 331 10.7
2009-08-12 06:59:00 51°15.434 2°54.083 332.5 11.5 331 10.7
2009-08-12 06:59:05 51°15.448 2°54.071 332.5 11.5 332 10.8
2009-08-12 06:59:09 51°15.46 2°54.061 332.7 11.5 332 10.7
2009-08-12 06:59:15 51°15.476 2°54.046 333.2 11.4 331 10.6
2009-08-12 06:59:20 51°15.49 2°54.034 333.1 11.5 332 10.8
2009-08-12 06:59:25 51°15.504 2°54.022 332.4 11.5 330 10.8
2009-08-12 06:59:30 51°15.518 2°54.01 332.6 11.5 332 10.9
2009-08-12 06:59:35 51°15.532 2°53.998 332.5 11.5 331 10.8
2009-08-12 06:59:40 51°15.546 2°53.985 332.2 11.4 331 11
2009-08-12 06:59:45 51°15.56 2°53.973 332.4 11.5 331 11.2
2009-08-12 06:59:50 51°15.574 2°53.961 332.5 11.5 332 11.1
2009-08-12 06:59:55 51°15.588 2°53.949 332.5 11.4 332 11
2009-08-12 07:00:00 51°15.602 2°53.937 332.6 11.4 331 11.4
2009-08-12 07:00:05 51°15.616 2°53.925 332.2 11.5 331 11.3
2009-08-12 07:00:10 51°15.63 2°53.913 332.5 11.4 331 11.3
2009-08-12 07:00:15 51°15.644 2°53.9 332.4 11.5 331 11.5
2009-08-12 07:00:20 51°15.657 2°53.888 332 11.4 330 11.6
2009-08-12 07:00:25 51°15.671 2°53.876 332 11.4 331 11.6
2009-08-12 07:00:31 51°15.688 2°53.861 331.9 11.4 330 11.5
2009-08-12 07:00:35 51°15.699 2°53.85 331.8 11.5 330 11.5
2009-08-12 07:00:40 51°15.713 2°53.838 332.1 11.5 332 11.3
2009-08-12 07:00:45 51°15.726 2°53.826 332.5 11.5 331 11.8
2009-08-12 07:00:50 51°15.74 2°53.814 332.5 11.5 331 12
2009-08-12 07:00:55 51°15.754 2°53.801 332.3 11.5 332 11.8
2009-08-12 07:01:00 51°15.768 2°53.79 332.7 11.5 332 11.9
2009-08-12 07:01:05 51°15.782 2°53.777 332.5 11.5 331 12
2009-08-12 07:01:09 51°15.794 2°53.767 332.3 11.5 332 11.9
2009-08-12 07:01:16 51°15.813 2°53.751 332.5 11.5 332 12
2009-08-12 07:01:20 51°15.825 2°53.741 332.7 11.5 331 12
2009-08-12 07:01:25 51°15.839 2°53.729 332.7 11.5 332 12.1
2009-08-12 07:01:30 51°15.853 2°53.717 332.5 11.5 331 12.1
2009-08-12 07:01:35 51°15.867 2°53.704 332.2 11.5 331 12.1
2009-08-12 07:01:40 51°15.88 2°53.692 331.9 11.5 331 12
2009-08-12 07:01:45 51°15.894 2°53.679 331.5 11.5 330 11.7
2009-08-12 07:01:50 51°15.908 2°53.667 331.2 11.5 330 12
2009-08-12 07:01:55 51°15.922 2°53.654 331 11.5 330 12.3
2009-08-12 07:02:00 51°15.936 2°53.641 330.8 11.5 331 11.9
2009-08-12 07:02:05 51°15.95 2°53.629 331.3 11.5 331 12.1
2009-08-12 07:02:11 51°15.966 2°53.615 331.6 11.4 331 12.3
2009-08-12 07:02:16 51°15.98 2°53.603 332.2 11.4 332 12.1
2009-08-12 07:02:21 51°15.995 2°53.591 333 11.5 333 12.2
2009-08-12 07:02:26 51°16.008 2°53.579 332.8 11.5 331 12.1
2009-08-12 07:02:31 51°16.023 2°53.567 332.4 11.5 332 12.3
2009-08-12 07:02:35 51°16.034 2°53.557 332.4 11.5 331 12.2
2009-08-12 07:02:41 51°16.051 2°53.543 332.3 11.6 332 12.2
2009-08-12 07:02:46 51°16.065 2°53.53 332.5 11.6 331 12.2
2009-08-12 07:02:51 51°16.079 2°53.517 332.2 11.6 331 12.3
2009-08-12 07:02:56 51°16.093 2°53.505 332.2 11.6 332 12.3
2009-08-12 07:03:01 51°16.107 2°53.493 332.3 11.6 331 12.4
2009-08-12 07:03:06 51°16.121 2°53.48 332.2 11.6 331 12.3
2009-08-12 07:03:10 51°16.133 2°53.471 332.5 11.6 332 12.3
2009-08-12 07:03:16 51°16.15 2°53.456 332.7 11.7 332 12.4
2009-08-12 07:03:21 51°16.164 2°53.444 332.3 11.7 332 12.5
2009-08-12 07:03:26 51°16.179 2°53.432 332.6 11.7 333 12.3
2009-08-12 07:03:31 51°16.193 2°53.421 332.9 11.7 333 12.4
2009-08-12 07:03:36 51°16.207 2°53.409 333.2 11.7 333 12.4
2009-08-12 07:03:41 51°16.222 2°53.397 333 11.7 332 12.5
2009-08-12 07:03:46 51°16.236 2°53.385 332.9 11.7 333 12.5
2009-08-12 07:03:51 51°16.251 2°53.373 333 11.7 333 12.5
2009-08-12 07:03:55 51°16.262 2°53.364 333 11.7 333 12.6
2009-08-12 07:04:01 51°16.28 2°53.35 332.7 11.7 333 12.5
2009-08-12 07:04:06 51°16.294 2°53.338 332.6 11.7 333 12.6
2009-08-12 07:04:11 51°16.308 2°53.325 332.2 11.6 332 12.5
2009-08-12 07:04:15 51°16.32 2°53.316 332.4 11.6 332 12.6
2009-08-12 07:04:21 51°16.337 2°53.301 332.5 11.6 331 12.7
2009-08-12 07:04:26 51°16.351 2°53.289 332 11.6 331 12.5
2009-08-12 07:04:31 51°16.365 2°53.277 331.8 11.6 332 12.5
2009-08-12 07:04:36 51°16.379 2°53.264 331.8 11.6 332 12.5
2009-08-12 07:04:41 51°16.393 2°53.252 331.8 11.6 332 12.6
2009-08-12 07:04:46 51°16.408 2°53.24 332.1 11.6 332 12.5
2009-08-12 07:04:51 51°16.422 2°53.228 332.3 11.6 332 12.6
2009-08-12 07:04:56 51°16.436 2°53.216 332 11.6 332 12.5
2009-08-12 07:05:01 51°16.45 2°53.204 332.2 11.6 332 12.4
2009-08-12 07:05:05 51°16.461 2°53.195 332.5 11.6 333 12.5
2009-08-12 07:05:11 51°16.479 2°53.18 331.7 11.6 331 12.7
2009-08-12 07:05:16 51°16.493 2°53.168 332 11.6 333 12.5
2009-08-12 07:05:21 51°16.507 2°53.156 332.5 11.6 331 12.5
2009-08-12 07:05:26 51°16.521 2°53.144 332 11.6 333 12.6
2009-08-12 07:05:31 51°16.535 2°53.132 332.4 11.6 332 12.4
2009-08-12 07:05:36 51°16.549 2°53.12 332.5 11.6 333 12.3
2009-08-12 07:05:41 51°16.564 2°53.108 332.6 11.6 331 12.4
2009-08-12 07:05:46 51°16.578 2°53.096 332.5 11.6 332 12.3
2009-08-12 07:05:51 51°16.592 2°53.084 332.5 11.6 332 12.3
2009-08-12 07:05:55 51°16.603 2°53.075 332.7 11.6 333 12.3
2009-08-12 07:06:01 51°16.62 2°53.06 332.9 11.5 332 12.3
2009-08-12 07:06:06 51°16.635 2°53.049 333.5 11.6 334 12.1
2009-08-12 07:06:11 51°16.649 2°53.037 333.2 11.5 331 12.2
2009-08-12 07:06:15 51°16.66 2°53.028 332.8 11.5 333 12.1
2009-08-12 07:06:21 51°16.677 2°53.013 332.9 11.6 332 12
2009-08-12 07:06:26 51°16.691 2°53.001 332.9 11.6 333 11.8
2009-08-12 07:06:30 51°16.702 2°52.991 332.9 11.6 331 11.8
2009-08-12 07:06:36 51°16.719 2°52.977 332.3 11.6 331 11.7
2009-08-12 07:06:41 51°16.734 2°52.965 332.5 11.5 332 11.6
2009-08-12 07:06:46 51°16.748 2°52.952 332.5 11.6 331 11.3
2009-08-12 07:06:50 51°16.759 2°52.943 332.4 11.6 332 11.3
2009-08-12 07:06:56 51°16.776 2°52.928 332.8 11.6 332 10.9
2009-08-12 07:07:01 51°16.79 2°52.916 332.9 11.6 332 10.5
2009-08-12 07:07:05 51°16.801 2°52.906 332.3 11.6 331 10.2
2009-08-12 07:07:11 51°16.818 2°52.891 331.1 11.5 331 10.1
2009-08-12 07:07:16 51°16.832 2°52.879 331.1 11.6 331 9.8
2009-08-12 07:07:21 51°16.846 2°52.866 330.2 11.5 329 9.9
2009-08-12 07:07:26 51°16.86 2°52.853 329.6 11.5 330 9.7
2009-08-12 07:07:31 51°16.873 2°52.839 328.9 11.5 328 9.8
2009-08-12 07:07:36 51°16.887 2°52.826 328.6 11.5 329 9.7
2009-08-12 07:07:41 51°16.9 2°52.812 328.3 11.5 328 9.9
2009-08-12 07:07:46 51°16.914 2°52.799 328 11.6 329 9.9
2009-08-12 07:07:51 51°16.928 2°52.785 328 11.6 328 10.1
2009-08-12 07:07:56 51°16.941 2°52.771 327.8 11.6 327 10.1
2009-08-12 07:08:01 51°16.955 2°52.758 327.4 11.6 328 10.2
2009-08-12 07:08:06 51°16.969 2°52.744 327.6 11.6 328 10.2
2009-08-12 07:08:11 51°16.983 2°52.731 327.9 11.6 327 10.5
2009-08-12 07:08:15 51°16.993 2°52.72 327.6 11.6 327 10.4
2009-08-12 07:08:21 51°17.01 2°52.703 327.4 11.6 328 10.6
2009-08-12 07:08:26 51°17.023 2°52.689 327.9 11.6 327 10.7
2009-08-12 07:08:31 51°17.037 2°52.676 327.9 11.6 327 10.6
2009-08-12 07:08:36 51°17.05 2°52.662 327.9 11.6 328 10.7
2009-08-12 07:08:41 51°17.064 2°52.648 327.9 11.6 327 10.4
2009-08-12 07:08:46 51°17.077 2°52.634 327.7 11.6 328 10.4
2009-08-12 07:08:50 51°17.088 2°52.623 328 11.6 327 10.3
2009-08-12 07:08:56 51°17.104 2°52.607 328.1 11.6 327 10.1
2009-08-12 07:09:01 51°17.118 2°52.592 327.7 11.6 326 10.2
2009-08-12 07:09:06 51°17.131 2°52.578 326.9 11.5 327 10.4
2009-08-12 07:09:10 51°17.142 2°52.567 327.5 11.5 327 10.3
2009-08-12 07:09:16 51°17.158 2°52.551 328.2 11.6 328 10.3
2009-08-12 07:09:21 51°17.171 2°52.537 328 11.6 327 10.6
2009-08-12 07:09:26 51°17.184 2°52.523 328.2 11.5 328 10.4
2009-08-12 07:09:30 51°17.195 2°52.511 328.1 11.6 326 10.4
2009-08-12 07:09:36 51°17.211 2°52.495 328 11.6 328 10.6
2009-08-12 07:09:41 51°17.225 2°52.481 328.2 11.6 326 10.8
2009-08-12 07:09:46 51°17.238 2°52.467 327.4 11.6 327 10.6
2009-08-12 07:09:50 51°17.249 2°52.455 327.3 11.6 326 10.7
2009-08-12 07:09:56 51°17.265 2°52.439 327.4 11.6 327 10.7
2009-08-12 07:10:01 51°17.278 2°52.424 327.2 11.6 326 10.9
2009-08-12 07:10:06 51°17.292 2°52.41 326.7 11.6 326 11.1
2009-08-12 07:10:10 51°17.302 2°52.398 326.7 11.6 325 10.7
2009-08-12 07:10:16 51°17.319 2°52.382 327.6 11.6 328 10.9
2009-08-12 07:10:21 51°17.332 2°52.367 327.4 11.6 326 10.9
2009-08-12 07:10:26 51°17.346 2°52.354 327.8 11.7 328 11.1
2009-08-12 07:10:30 51°17.357 2°52.343 328.6 11.7 328 10.9
2009-08-12 07:10:36 51°17.373 2°52.326 328.6 11.7 327 11.1
2009-08-12 07:10:41 51°17.387 2°52.313 328.4 11.6 328 11.2
2009-08-12 07:10:46 51°17.4 2°52.298 328.7 11.6 327 11.3
2009-08-12 07:10:50 51°17.411 2°52.287 327.6 11.6 324 10.9
2009-08-12 07:10:56 51°17.426 2°52.268 324.9 11.5 322 11.2
2009-08-12 07:11:01 51°17.439 2°52.253 324.2 11.5 324 11.4
2009-08-12 07:11:06 51°17.451 2°52.236 322.6 11.6 320 12
2009-08-12 07:11:11 51°17.463 2°52.22 321.3 11.5 321 11.5
2009-08-12 07:11:16 51°17.475 2°52.202 319.7 11.5 316 11.5
2009-08-12 07:11:21 51°17.486 2°52.185 317.3 11.5 317 12.1
2009-08-12 07:11:26 51°17.497 2°52.166 316 11.5 314 11.6
2009-08-12 07:11:30 51°17.506 2°52.152 314.9 11.5 315 11.7
2009-08-12 07:11:36 51°17.519 2°52.129 314.2 11.5 312 11.7
2009-08-12 07:11:41 51°17.53 2°52.111 313 11.5 313 11.7
2009-08-12 07:11:46 51°17.541 2°52.092 312.6 11.5 312 11.5
2009-08-12 07:11:51 51°17.551 2°52.072 311.8 11.5 311 12
2009-08-12 07:11:56 51°17.561 2°52.053 311.4 11.6 310 11.5
2009-08-12 07:12:01 51°17.572 2°52.034 311.2 11.5 311 11.7
2009-08-12 07:12:06 51°17.582 2°52.014 310.3 11.5 309 11.4
2009-08-12 07:12:10 51°17.59 2°51.998 309.7 11.5 310 10.9
2009-08-12 07:12:16 51°17.602 2°51.975 309.8 11.5 309 10.8
2009-08-12 07:12:21 51°17.612 2°51.955 309 11.5 309 10.8
2009-08-12 07:12:26 51°17.622 2°51.935 308.9 11.5 309 10.8
2009-08-12 07:12:31 51°17.632 2°51.915 308.6 11.5 308 11
2009-08-12 07:12:36 51°17.642 2°51.895 308.7 11.5 309 10.7
2009-08-12 07:12:41 51°17.652 2°51.875 308.7 11.5 308 10.6
2009-08-12 07:12:46 51°17.662 2°51.855 308.6 11.5 309 10.8
2009-08-12 07:12:51 51°17.672 2°51.835 308.6 11.5 308 10.9
2009-08-12 07:12:55 51°17.68 2°51.819 308.6 11.6 309 10.5
2009-08-12 07:13:01 51°17.692 2°51.795 308.6 11.5 308 10.5
2009-08-12 07:13:06 51°17.702 2°51.775 308.7 11.5 309 10.6
2009-08-12 07:13:11 51°17.711 2°51.755 308.9 11.5 308 10.7
2009-08-12 07:13:15 51°17.719 2°51.739 308.5 11.6 308 10.6
2009-08-12 07:13:21 51°17.731 2°51.715 308.4 11.5 309 10.4
2009-08-12 07:13:26 51°17.741 2°51.695 308.7 11.6 308 10.4
2009-08-12 07:13:31 51°17.751 2°51.675 308.9 11.6 309 10.7
2009-08-12 07:13:36 51°17.761 2°51.655 308.8 11.6 309 10.7
2009-08-12 07:13:41 51°17.771 2°51.635 309 11.6 309 10.5
2009-08-12 07:13:46 51°17.781 2°51.615 309.4 11.6 309 10.7
2009-08-12 07:13:51 51°17.791 2°51.595 309.1 11.6 309 10.5
2009-08-12 07:13:55 51°17.799 2°51.579 308.9 11.6 309 10.9
2009-08-12 07:14:01 51°17.812 2°51.556 309.5 11.6 310 10.6
2009-08-12 07:14:06 51°17.822 2°51.536 309.8 11.6 309 10.6
2009-08-12 07:14:11 51°17.832 2°51.516 309.4 11.5 308 10.7
2009-08-12 07:14:16 51°17.842 2°51.496 309.1 11.6 309 10.6
2009-08-12 07:14:21 51°17.852 2°51.476 309.8 11.6 310 10.8
2009-08-12 07:14:26 51°17.862 2°51.456 310.1 11.6 309 10.9
2009-08-12 07:14:30 51°17.871 2°51.44 309.9 11.6 309 10.9
2009-08-12 07:14:36 51°17.883 2°51.417 309.6 11.6 309 10.9
2009-08-12 07:14:41 51°17.893 2°51.397 310 11.6 310 11.1
2009-08-12 07:14:46 51°17.904 2°51.377 310.4 11.6 310 11.2
2009-08-12 07:14:51 51°17.914 2°51.357 310.2 11.6 310 11.2
2009-08-12 07:14:56 51°17.924 2°51.337 310.1 11.6 309 11.1
2009-08-12 07:15:01 51°17.934 2°51.318 309.8 11.6 310 11.3
2009-08-12 07:15:06 51°17.945 2°51.298 310 11.6 310 11.6
2009-08-12 07:15:11 51°17.955 2°51.278 310 11.7 310 11.4
2009-08-12 07:15:15 51°17.964 2°51.262 309.8 11.7 310 11.5
2009-08-12 07:15:21 51°17.976 2°51.238 309.8 11.6 310 11.8
2009-08-12 07:15:26 51°17.986 2°51.218 309.9 11.6 310 11.6
2009-08-12 07:15:31 51°17.997 2°51.198 310.1 11.7 310 12
2009-08-12 07:15:35 51°18.005 2°51.183 310.1 11.7 310 12.1
2009-08-12 07:15:41 51°18.017 2°51.159 310.2 11.7 310 12.4
2009-08-12 07:15:46 51°18.028 2°51.139 310.1 11.7 309 12.1
2009-08-12 07:15:51 51°18.038 2°51.119 310 11.7 310 12.2
2009-08-12 07:15:56 51°18.048 2°51.099 309.7 11.7 309 12.7
2009-08-12 07:16:01 51°18.059 2°51.079 309.8 11.6 310 12.3
2009-08-12 07:16:06 51°18.069 2°51.059 310 11.6 310 12.6
2009-08-12 07:16:11 51°18.079 2°51.04 310.1 11.6 310 12.9
2009-08-12 07:16:16 51°18.09 2°51.02 310.2 11.6 310 12.8
2009-08-12 07:16:21 51°18.1 2°51 310.2 11.6 309 12.9
2009-08-12 07:16:26 51°18.11 2°50.98 309.9 11.6 310 13
2009-08-12 07:16:31 51°18.12 2°50.961 310 11.6 310 13.2
2009-08-12 07:16:36 51°18.13 2°50.94 310 11.6 309 13.3
2009-08-12 07:16:41 51°18.141 2°50.921 310.1 11.6 309 13.2
2009-08-12 07:16:46 51°18.151 2°50.9 309.7 11.6 308 13.2
2009-08-12 07:16:51 51°18.161 2°50.88 309.3 11.6 310 13.4
2009-08-12 07:16:56 51°18.171 2°50.861 309.9 11.7 310 13.3
2009-08-12 07:17:01 51°18.182 2°50.841 310.4 11.6 310 13.5
2009-08-12 07:17:06 51°18.192 2°50.821 310.2 11.6 309 13.5
2009-08-12 07:17:11 51°18.202 2°50.802 310 11.6 310 13.4
2009-08-12 07:17:15 51°18.21 2°50.786 309.9 11.6 309 13.7
2009-08-12 07:17:21 51°18.222 2°50.762 309.9 11.6 309 13.5
2009-08-12 07:17:26 51°18.232 2°50.742 309.8 11.6 309 13.7
2009-08-12 07:17:31 51°18.243 2°50.722 309.9 11.6 309 13.8
2009-08-12 07:17:35 51°18.251 2°50.706 310 11.6 309 13.8
2009-08-12 07:17:41 51°18.263 2°50.682 309.5 11.6 309 13.8
2009-08-12 07:17:46 51°18.273 2°50.662 309.3 11.6 309 14
2009-08-12 07:17:51 51°18.283 2°50.642 309.4 11.6 309 14.1
2009-08-12 07:17:55 51°18.291 2°50.626 309.9 11.6 309 14
2009-08-12 07:18:01 51°18.303 2°50.602 309.6 11.7 309 14.2
2009-08-12 07:18:06 51°18.313 2°50.582 309.8 11.6 310 14.2
2009-08-12 07:18:11 51°18.324 2°50.562 310 11.6 309 14.2
2009-08-12 07:18:16 51°18.333 2°50.542 309.4 11.6 309 14.4
2009-08-12 07:18:21 51°18.344 2°50.522 309.2 11.6 309 14.4
2009-08-12 07:18:26 51°18.354 2°50.502 309.9 11.7 309 14.3
2009-08-12 07:18:30 51°18.362 2°50.486 309.9 11.6 309 14.4
2009-08-12 07:18:36 51°18.374 2°50.462 309.9 11.6 310 14.6
2009-08-12 07:18:41 51°18.385 2°50.442 310.2 11.6 310 14.5
2009-08-12 07:18:46 51°18.395 2°50.423 310.6 11.7 310 14.5
2009-08-12 07:18:50 51°18.404 2°50.407 310.6 11.7 310 14.6
2009-08-12 07:18:56 51°18.416 2°50.383 310.6 11.6 310 14.6
2009-08-12 07:19:01 51°18.426 2°50.364 310.3 11.6 310 14.6
2009-08-12 07:19:06 51°18.437 2°50.344 310.1 11.6 310 14.7
2009-08-12 07:19:10 51°18.445 2°50.328 310.4 11.6 310 14.7
2009-08-12 07:19:16 51°18.458 2°50.304 310.4 11.7 310 14.6
2009-08-12 07:19:21 51°18.468 2°50.285 310.4 11.6 310 14.5
2009-08-12 07:19:26 51°18.478 2°50.265 310 11.6 310 14.9
2009-08-12 07:19:31 51°18.489 2°50.245 309.9 11.6 310 14.7
2009-08-12 07:19:35 51°18.497 2°50.23 310 11.6 310 14.5
2009-08-12 07:19:41 51°18.509 2°50.206 309.9 11.5 309 14.5
2009-08-12 07:19:46 51°18.519 2°50.186 310 11.5 310 14.5
2009-08-12 07:19:51 51°18.529 2°50.167 310.7 11.5 310 14.7
2009-08-12 07:19:55 51°18.537 2°50.151 310.7 11.5 310 14.6
2009-08-12 07:20:01 51°18.55 2°50.128 310.3 11.5 310 14.3
2009-08-12 07:20:06 51°18.56 2°50.108 310.5 11.5 309 14.3
2009-08-12 07:20:11 51°18.57 2°50.088 310 11.5 310 14.4
2009-08-12 07:20:15 51°18.578 2°50.072 309.3 11.5 308 14.3
2009-08-12 07:20:21 51°18.59 2°50.049 309.8 11.5 309 14
2009-08-12 07:20:26 51°18.6 2°50.029 310 11.5 309 13.9
2009-08-12 07:20:31 51°18.61 2°50.009 309.8 11.5 308 14
2009-08-12 07:20:36 51°18.62 2°49.99 310.2 11.5 310 13.8
2009-08-12 07:20:41 51°18.63 2°49.97 310 11.5 308 13.5
2009-08-12 07:20:46 51°18.64 2°49.95 309.7 11.5 309 13.4
2009-08-12 07:20:51 51°18.65 2°49.93 309.1 11.5 308 13.4
2009-08-12 07:20:56 51°18.659 2°49.91 308.9 11.5 308 13.4
2009-08-12 07:21:01 51°18.669 2°49.89 309.1 11.5 309 13.1
2009-08-12 07:21:06 51°18.679 2°49.87 309.5 11.5 309 13.3
2009-08-12 07:21:11 51°18.69 2°49.851 310.2 11.5 310 13.2
2009-08-12 07:21:16 51°18.7 2°49.831 310.6 11.5 309 13
2009-08-12 07:21:21 51°18.71 2°49.812 311.1 11.5 311 12.5
2009-08-12 07:21:26 51°18.72 2°49.792 311.4 11.5 310 11.9
2009-08-12 07:21:31 51°18.73 2°49.773 311 11.5 310 11.8
2009-08-12 07:21:36 51°18.741 2°49.753 310.7 11.5 309 11.7
2009-08-12 07:21:41 51°18.751 2°49.734 310.7 11.5 310 11.8
2009-08-12 07:21:46 51°18.761 2°49.714 310.9 11.6 309 11.9
2009-08-12 07:21:51 51°18.771 2°49.694 310.9 11.6 309 11.8
2009-08-12 07:21:55 51°18.779 2°49.678 310.4 11.6 309 11.8
2009-08-12 07:22:01 51°18.792 2°49.654 310.5 11.6 310 11.5
2009-08-12 07:22:06 51°18.802 2°49.634 310.5 11.6 309 11.6
2009-08-12 07:22:11 51°18.812 2°49.614 310.1 11.6 308 11.2
2009-08-12 07:22:15 51°18.82 2°49.598 310 11.6 309 11.3
2009-08-12 07:22:21 51°18.832 2°49.574 310.2 11.6 309 11.2
2009-08-12 07:22:26 51°18.842 2°49.554 310.6 11.7 310 11.2
2009-08-12 07:22:31 51°18.852 2°49.533 310.6 11.7 308 11
2009-08-12 07:22:35 51°18.86 2°49.518 310.1 11.7 309 10.9
2009-08-12 07:22:41 51°18.873 2°49.493 310.3 11.7 309 11.1
2009-08-12 07:22:46 51°18.883 2°49.473 310.7 11.7 309 11.1
2009-08-12 07:22:51 51°18.893 2°49.453 310.4 11.7 308 11.4
2009-08-12 07:22:56 51°18.903 2°49.433 310.1 11.7 309 11.5
2009-08-12 07:23:01 51°18.913 2°49.413 310.2 11.7 309 11.4
2009-08-12 07:23:06 51°18.924 2°49.393 310.3 11.7 309 11.7
2009-08-12 07:23:11 51°18.934 2°49.372 310.3 11.7 309 11.4
2009-08-12 07:23:16 51°18.944 2°49.352 310.5 11.7 309 11.8
2009-08-12 07:23:21 51°18.954 2°49.331 309.5 11.7 308 12.2
2009-08-12 07:23:26 51°18.964 2°49.311 309.3 11.7 308 12.4
2009-08-12 07:23:31 51°18.974 2°49.29 309.2 11.7 308 12.5
2009-08-12 07:23:36 51°18.984 2°49.27 309.7 11.7 308 12.7
2009-08-12 07:23:41 51°18.994 2°49.25 310.1 11.7 309 12.6
2009-08-12 07:23:46 51°19.004 2°49.229 310.2 11.8 308 12.6
2009-08-12 07:23:50 51°19.012 2°49.213 310.3 11.7 309 12.4
2009-08-12 07:23:56 51°19.024 2°49.189 310.2 11.8 308 12.6
2009-08-12 07:24:01 51°19.035 2°49.168 310.5 11.7 309 12.5
2009-08-12 07:24:06 51°19.045 2°49.148 310.5 11.7 309 12.4
2009-08-12 07:24:10 51°19.053 2°49.132 310.5 11.7 309 12.6
2009-08-12 07:24:16 51°19.065 2°49.108 310.6 11.7 309 12.4
2009-08-12 07:24:21 51°19.075 2°49.087 310.7 11.7 308 12.5
2009-08-12 07:24:26 51°19.086 2°49.067 310.2 11.7 309 12.5
2009-08-12 07:24:30 51°19.094 2°49.051 310.2 11.8 308 12.7
2009-08-12 07:24:36 51°19.106 2°49.026 310.3 11.7 309 13.3
2009-08-12 07:24:41 51°19.116 2°49.006 310.4 11.7 309 13.5
2009-08-12 07:24:46 51°19.126 2°48.986 310.7 11.7 309 13.8
2009-08-12 07:24:51 51°19.136 2°48.965 310.3 11.8 308 14.4
2009-08-12 07:24:56 51°19.147 2°48.945 310.2 11.7 309 14.6
2009-08-12 07:25:01 51°19.157 2°48.925 310.5 11.8 309 14.8
2009-08-12 07:25:06 51°19.167 2°48.904 310.7 11.7 309 15
2009-08-12 07:25:11 51°19.178 2°48.884 310.7 11.8 309 15.1
2009-08-12 07:25:15 51°19.186 2°48.868 310.9 11.8 309 15.3
2009-08-12 07:25:21 51°19.198 2°48.844 310.9 11.8 309 15.2
2009-08-12 07:25:26 51°19.208 2°48.824 310.8 11.8 309 15.4
2009-08-12 07:25:31 51°19.219 2°48.803 310.7 11.8 309 15.7
2009-08-12 07:25:36 51°19.229 2°48.783 310.5 11.8 309 15.7
2009-08-12 07:25:41 51°19.239 2°48.762 310.2 11.8 309 15.8
2009-08-12 07:25:46 51°19.249 2°48.742 310.5 11.8 309 16
2009-08-12 07:25:51 51°19.26 2°48.722 310.6 11.8 309 16.1
2009-08-12 07:25:56 51°19.27 2°48.701 310.3 11.8 309 16.4
2009-08-12 07:26:01 51°19.28 2°48.681 310.5 11.8 309 16.5
2009-08-12 07:26:06 51°19.291 2°48.661 310.6 11.8 309 16.7
2009-08-12 07:26:11 51°19.301 2°48.641 310.5 11.8 309 16.9
2009-08-12 07:26:16 51°19.311 2°48.62 310.2 11.8 309 17
2009-08-12 07:26:21 51°19.322 2°48.6 310.4 11.8 309 17.1
2009-08-12 07:26:26 51°19.332 2°48.579 310.4 11.8 309 17.2
2009-08-12 07:26:31 51°19.343 2°48.559 310.3 11.8 309 17.5
2009-08-12 07:26:35 51°19.351 2°48.543 310.1 11.9 309 17.7
2009-08-12 07:26:41 51°19.363 2°48.518 310 11.9 309 17.8
2009-08-12 07:26:46 51°19.374 2°48.498 310.2 11.9 310 18.1
2009-08-12 07:26:51 51°19.385 2°48.478 310.7 11.8 310 18.3
2009-08-12 07:26:55 51°19.393 2°48.462 310.7 11.8 309 18.5
2009-08-12 07:27:01 51°19.405 2°48.438 310.7 11.7 310 18.4
2009-08-12 07:27:06 51°19.416 2°48.418 310.7 11.7 310 18.6
2009-08-12 07:27:11 51°19.426 2°48.399 310.7 11.6 310 18.9
2009-08-12 07:27:16 51°19.436 2°48.379 310.2 11.6 309 18.9
2009-08-12 07:27:21 51°19.446 2°48.359 309.6 11.5 309 19
2009-08-12 07:27:26 51°19.456 2°48.339 309.4 11.5 309 19.1
2009-08-12 07:27:31 51°19.467 2°48.32 310.1 11.5 310 19.5
2009-08-12 07:27:36 51°19.476 2°48.3 310.3 11.5 309 19.6
2009-08-12 07:27:41 51°19.487 2°48.28 309.6 11.4 309 19.7
2009-08-12 07:27:46 51°19.497 2°48.261 309.2 11.5 308 19.9
2009-08-12 07:27:51 51°19.507 2°48.241 309.6 11.4 310 20.3
2009-08-12 07:27:56 51°19.517 2°48.221 309.9 11.4 308 20.5
2009-08-12 07:28:01 51°19.527 2°48.202 309.6 11.4 310 20.5
2009-08-12 07:28:05 51°19.535 2°48.186 310.1 11.5 309 20.8
2009-08-12 07:28:11 51°19.547 2°48.162 310.2 11.4 309 20.9
2009-08-12 07:28:16 51°19.557 2°48.143 310.4 11.4 310 21.1
2009-08-12 07:28:21 51°19.566 2°48.123 310.5 11.5 309 21.3
2009-08-12 07:28:26 51°19.577 2°48.103 310.5 11.5 309 21.3
2009-08-12 07:28:31 51°19.587 2°48.083 310.3 11.5 309 21.4
2009-08-12 07:28:36 51°19.597 2°48.064 310 11.6 310 21.6
2009-08-12 07:28:41 51°19.607 2°48.044 310.5 11.6 310 21.7
2009-08-12 07:28:46 51°19.617 2°48.024 310.7 11.6 310 22
2009-08-12 07:28:51 51°19.628 2°48.004 310.4 11.7 310 21.8
2009-08-12 07:28:55 51°19.636 2°47.988 310.1 11.6 310 22
2009-08-12 07:29:01 51°19.648 2°47.965 310.2 11.7 310 21.9
2009-08-12 07:29:06 51°19.658 2°47.945 310.1 11.6 309 22
2009-08-12 07:29:11 51°19.668 2°47.925 310.1 11.6 309 22
2009-08-12 07:29:15 51°19.677 2°47.909 310 11.6 309 22.2
2009-08-12 07:29:21 51°19.689 2°47.885 310.1 11.6 310 22
2009-08-12 07:29:26 51°19.699 2°47.865 310.5 11.7 309 22.1
2009-08-12 07:29:31 51°19.71 2°47.846 310.5 11.6 310 22
2009-08-12 07:29:36 51°19.72 2°47.826 310.2 11.6 309 22.1
2009-08-12 07:29:41 51°19.73 2°47.806 310.2 11.6 309 22.3
2009-08-12 07:29:46 51°19.74 2°47.786 310.5 11.6 310 22.1
2009-08-12 07:29:51 51°19.751 2°47.766 310.4 11.6 309 22.2
2009-08-12 07:29:56 51°19.761 2°47.746 310.3 11.6 309 22.3
2009-08-12 07:30:01 51°19.771 2°47.726 310.4 11.6 310 22.3
2009-08-12 07:30:06 51°19.781 2°47.706 310.6 11.6 309 22.2
2009-08-12 07:30:11 51°19.792 2°47.687 310.5 11.6 309 22.2
2009-08-12 07:30:16 51°19.802 2°47.667 310.6 11.6 309 22.2
2009-08-12 07:30:21 51°19.812 2°47.646 310.1 11.6 309 22.1
2009-08-12 07:30:26 51°19.822 2°47.626 309.4 11.6 309 22.1
2009-08-12 07:30:31 51°19.832 2°47.606 309.8 11.6 309 22
2009-08-12 07:30:36 51°19.842 2°47.586 310 11.7 309 22
2009-08-12 07:30:41 51°19.853 2°47.566 309.9 11.7 310 21.8
2009-08-12 07:30:46 51°19.863 2°47.546 310.4 11.7 309 21.8
2009-08-12 07:30:51 51°19.873 2°47.526 310.3 11.7 310 21.9
2009-08-12 07:30:55 51°19.881 2°47.51 309.8 11.7 309 21.5
2009-08-12 07:31:01 51°19.893 2°47.486 309.3 11.7 309 21.7
2009-08-12 07:31:06 51°19.904 2°47.466 309.4 11.7 309 21.4
2009-08-12 07:31:11 51°19.914 2°47.446 309.2 11.7 310 21.5
2009-08-12 07:31:15 51°19.922 2°47.43 309.5 11.7 310 21.5
2009-08-12 07:31:21 51°19.935 2°47.406 310.2 11.7 310 21.5
2009-08-12 07:31:26 51°19.946 2°47.386 310 11.7 310 21.5
2009-08-12 07:31:31 51°19.956 2°47.366 309.8 11.7 310 21.3
2009-08-12 07:31:35 51°19.964 2°47.351 309.6 11.7 309 21.1
2009-08-12 07:31:41 51°19.977 2°47.326 309.7 11.7 310 21
2009-08-12 07:31:46 51°19.987 2°47.306 309.8 11.7 310 20.6
2009-08-12 07:31:51 51°19.997 2°47.285 309.9 11.6 309 20.7
2009-08-12 07:31:56 51°20.007 2°47.265 309.6 11.6 309 21
2009-08-12 07:32:01 51°20.017 2°47.245 310 11.7 310 20.4
2009-08-12 07:32:06 51°20.028 2°47.225 310.7 11.7 310 20.5
2009-08-12 07:32:10 51°20.036 2°47.209 310.7 11.7 310 20.6
2009-08-12 07:32:16 51°20.048 2°47.186 310.7 11.7 310 20.3
2009-08-12 07:32:21 51°20.059 2°47.165 310.8 11.7 309 20.4
2009-08-12 07:32:25 51°20.067 2°47.149 310.7 11.7 309 20.1
2009-08-12 07:32:31 51°20.079 2°47.125 310.7 11.8 310 19.7
2009-08-12 07:32:36 51°20.09 2°47.105 310.9 11.7 309 18.6
2009-08-12 07:32:41 51°20.1 2°47.085 310.5 11.7 309 18.7
2009-08-12 07:32:46 51°20.11 2°47.065 309.7 11.7 309 18.8
2009-08-12 07:32:51 51°20.121 2°47.045 310 11.7 310 18.9
2009-08-12 07:32:56 51°20.131 2°47.025 310.3 11.8 309 18.9
2009-08-12 07:33:01 51°20.142 2°47.006 310.6 11.8 311 18.7
2009-08-12 07:33:06 51°20.152 2°46.985 310.6 11.8 309 18.9
2009-08-12 07:33:11 51°20.162 2°46.965 310.4 11.8 310 18.6
2009-08-12 07:33:15 51°20.171 2°46.949 310.1 11.8 310 18.5
2009-08-12 07:33:21 51°20.183 2°46.925 310.2 11.8 309 18.2
2009-08-12 07:33:26 51°20.193 2°46.905 310 11.7 309 17.7
2009-08-12 07:33:30 51°20.202 2°46.889 310.7 11.7 310 17.5
2009-08-12 07:33:36 51°20.214 2°46.864 310.4 11.7 308 15.9
2009-08-12 07:33:41 51°20.223 2°46.844 309.3 11.7 308 16
2009-08-12 07:33:46 51°20.233 2°46.824 309.4 11.7 308 15.2
2009-08-12 07:33:51 51°20.243 2°46.804 310.1 11.6 309 16.5
2009-08-12 07:33:56 51°20.253 2°46.783 310 11.7 308 16.8
2009-08-12 07:34:01 51°20.263 2°46.763 309.9 11.7 308 16.2
2009-08-12 07:34:06 51°20.274 2°46.743 310 11.7 309 14.9
2009-08-12 07:34:11 51°20.284 2°46.723 310.4 11.6 309 13.8
2009-08-12 07:34:16 51°20.293 2°46.703 310 11.6 307 15.7
2009-08-12 07:34:21 51°20.303 2°46.683 309.9 11.6 309 16.6
2009-08-12 07:34:26 51°20.313 2°46.663 310.2 11.6 308 17.2
2009-08-12 07:34:31 51°20.324 2°46.643 310.7 11.7 309 16.7
2009-08-12 07:34:36 51°20.334 2°46.623 310.6 11.6 308 15.3
2009-08-12 07:34:41 51°20.344 2°46.602 311.2 11.7 309 15.5
2009-08-12 07:34:46 51°20.354 2°46.582 311 11.7 308 16.5
2009-08-12 07:34:51 51°20.364 2°46.562 310 11.7 308 16.9
2009-08-12 07:34:56 51°20.374 2°46.541 310.1 11.7 308 15.3
2009-08-12 07:35:01 51°20.384 2°46.521 310.1 11.8 309 15.5
2009-08-12 07:35:06 51°20.394 2°46.5 310.3 11.8 308 16.3
2009-08-12 07:35:11 51°20.405 2°46.48 310.5 11.8 309 16.6
2009-08-12 07:35:16 51°20.415 2°46.46 310.5 11.8 309 16.8
2009-08-12 07:35:21 51°20.425 2°46.439 311.3 11.8 309 15.9
2009-08-12 07:35:26 51°20.436 2°46.419 310.9 11.9 309 15.9
2009-08-12 07:35:31 51°20.446 2°46.398 310.6 11.9 309 16.5
2009-08-12 07:35:35 51°20.454 2°46.382 310.7 11.9 308 16.1
2009-08-12 07:35:41 51°20.466 2°46.357 310.5 11.9 309 17.5
2009-08-12 07:35:46 51°20.477 2°46.337 310.4 11.9 309 18.3
2009-08-12 07:35:51 51°20.487 2°46.316 310.8 11.9 310 19.1
2009-08-12 07:35:55 51°20.495 2°46.3 310.9 11.9 309 19.6
2009-08-12 07:36:01 51°20.508 2°46.275 310.8 11.9 310 20.1
2009-08-12 07:36:06 51°20.519 2°46.255 310.8 11.9 310 20.4
2009-08-12 07:36:11 51°20.529 2°46.235 311.1 11.8 310 20.7
2009-08-12 07:36:16 51°20.539 2°46.215 310.8 11.9 309 20.6
2009-08-12 07:36:21 51°20.55 2°46.194 310.7 11.8 309 20.8
2009-08-12 07:36:26 51°20.56 2°46.174 310.6 11.8 309 20.9
2009-08-12 07:36:31 51°20.57 2°46.153 310.5 11.8 309 21
2009-08-12 07:36:36 51°20.58 2°46.133 310.2 11.8 309 21
2009-08-12 07:36:41 51°20.591 2°46.113 310.3 11.8 309 21.4
2009-08-12 07:36:46 51°20.601 2°46.092 310.5 11.8 309 21.2
2009-08-12 07:36:51 51°20.611 2°46.072 310.5 11.8 309 21.5
2009-08-12 07:36:56 51°20.622 2°46.052 310.7 11.7 309 21.1
2009-08-12 07:37:01 51°20.632 2°46.032 310.7 11.8 309 21.4
2009-08-12 07:37:06 51°20.643 2°46.012 310.9 11.8 311 22.1
2009-08-12 07:37:11 51°20.653 2°45.992 311 11.7 311 22.6
2009-08-12 07:37:16 51°20.665 2°45.975 314.5 11.6 318 22.8
2009-08-12 07:37:21 51°20.677 2°45.957 318.3 11.7 316 23.3
2009-08-12 07:37:26 51°20.69 2°45.942 319.7 11.6 321 23.7
2009-08-12 07:37:31 51°20.703 2°45.926 322.3 11.6 322 24
2009-08-12 07:37:36 51°20.715 2°45.911 323.9 11.6 323 24.4
2009-08-12 07:37:41 51°20.729 2°45.896 325.6 11.7 324 24.5
2009-08-12 07:37:46 51°20.742 2°45.882 326.7 11.7 326 24.8
2009-08-12 07:37:50 51°20.753 2°45.87 327.8 11.6 326 24.9
2009-08-12 07:37:56 51°20.769 2°45.853 328.2 11.6 327 25.3
2009-08-12 07:38:01 51°20.783 2°45.84 330 11.7 329 25.4
2009-08-12 07:38:06 51°20.797 2°45.826 330.2 11.7 328 25.5
2009-08-12 07:38:11 51°20.811 2°45.813 331.1 11.8 330 24.9
2009-08-12 07:38:15 51°20.822 2°45.802 331.1 11.7 329 23.4
2009-08-12 07:38:21 51°20.839 2°45.787 332.3 11.8 330 23.4
2009-08-12 07:38:26 51°20.853 2°45.774 332.2 11.8 330 23.3
2009-08-12 07:38:31 51°20.867 2°45.761 332.6 11.7 330 23.2
2009-08-12 07:38:36 51°20.882 2°45.749 333.2 11.7 331 23.6
2009-08-12 07:38:41 51°20.896 2°45.736 333.2 11.6 330 23.6
2009-08-12 07:38:46 51°20.91 2°45.725 333 11.5 332 24.2
2009-08-12 07:38:51 51°20.924 2°45.712 333.5 11.6 330 24.6
2009-08-12 07:38:56 51°20.938 2°45.699 333.1 11.5 331 24.9
2009-08-12 07:39:01 51°20.952 2°45.687 332.9 11.5 330 24.9
2009-08-12 07:39:06 51°20.965 2°45.674 332.8 11.5 331 25.5
2009-08-12 07:39:10 51°20.976 2°45.664 333 11.5 331 25.6
2009-08-12 07:39:16 51°20.993 2°45.649 332.9 11.5 331 25.9
2009-08-12 07:39:21 51°21.007 2°45.636 332.5 11.5 329 26
2009-08-12 07:39:26 51°21.021 2°45.624 332.2 11.5 330 26
2009-08-12 07:39:30 51°21.032 2°45.613 332.1 11.5 329 26.3
2009-08-12 07:39:36 51°21.048 2°45.597 331.8 11.5 329 26.1
2009-08-12 07:39:41 51°21.062 2°45.585 331.8 11.5 329 26.1
2009-08-12 07:39:46 51°21.075 2°45.57 331.3 11.5 328 26
2009-08-12 07:39:51 51°21.089 2°45.557 329.6 11.4 327 25.9
2009-08-12 07:39:56 51°21.102 2°45.542 329.6 11.5 326 26.2
2009-08-12 07:40:01 51°21.115 2°45.528 328.4 11.5 325 25.9
2009-08-12 07:40:06 51°21.128 2°45.513 327.8 11.5 325 26.3
2009-08-12 07:40:10 51°21.138 2°45.501 327.6 11.5 324 26
2009-08-12 07:40:16 51°21.154 2°45.484 326.9 11.5 325 26.2
2009-08-12 07:40:21 51°21.167 2°45.469 327.2 11.5 323 26
2009-08-12 07:40:26 51°21.18 2°45.454 326.6 11.5 324 26
2009-08-12 07:40:31 51°21.192 2°45.438 326.3 11.5 323 26.1
2009-08-12 07:40:35 51°21.203 2°45.426 326 11.6 323 26
2009-08-12 07:40:41 51°21.218 2°45.408 325.6 11.6 323 25.8
2009-08-12 07:40:46 51°21.231 2°45.392 326 11.6 323 25.9
2009-08-12 07:40:51 51°21.244 2°45.376 325.6 11.6 323 25.7
2009-08-12 07:40:55 51°21.254 2°45.364 325.3 11.6 323 25.8
2009-08-12 07:41:01 51°21.269 2°45.345 325.4 11.6 322 25.9
2009-08-12 07:41:06 51°21.282 2°45.329 325 11.6 322 25.7
2009-08-12 07:41:11 51°21.294 2°45.313 325 11.6 322 25.9
2009-08-12 07:41:16 51°21.307 2°45.297 324.9 11.6 322 25.7
2009-08-12 07:41:21 51°21.32 2°45.282 325.1 11.7 323 25.6
2009-08-12 07:41:26 51°21.333 2°45.265 324.8 11.7 321 25.4
2009-08-12 07:41:31 51°21.345 2°45.249 324.2 11.6 321 25.3
2009-08-12 07:41:36 51°21.358 2°45.234 325.2 11.7 323 25.2
2009-08-12 07:41:41 51°21.371 2°45.218 325 11.6 322 25.1
2009-08-12 07:41:46 51°21.384 2°45.203 325.5 11.7 324 25
2009-08-12 07:41:51 51°21.397 2°45.186 325.9 11.7 322 24.8
2009-08-12 07:41:56 51°21.41 2°45.171 325.9 11.6 324 24.7
2009-08-12 07:42:01 51°21.423 2°45.155 326 11.7 322 24.6
2009-08-12 07:42:06 51°21.436 2°45.14 326 11.7 323 24.3
2009-08-12 07:42:11 51°21.449 2°45.124 325.7 11.7 323 24.5
2009-08-12 07:42:16 51°21.462 2°45.109 325.8 11.7 323 24.2
2009-08-12 07:42:21 51°21.474 2°45.093 326.1 11.8 323 24
2009-08-12 07:42:26 51°21.488 2°45.077 325.9 11.8 323 23.8
2009-08-12 07:42:31 51°21.501 2°45.062 326.1 11.8 324 23.8
2009-08-12 07:42:35 51°21.511 2°45.049 325.7 11.8 322 23.4
2009-08-12 07:42:41 51°21.527 2°45.03 325.8 11.8 324 23.4
2009-08-12 07:42:46 51°21.54 2°45.015 325.9 11.9 323 23.4
2009-08-12 07:42:51 51°21.554 2°45 326.5 11.8 325 23.1
2009-08-12 07:42:56 51°21.568 2°44.985 328.2 11.9 326 22.9
2009-08-12 07:43:01 51°21.581 2°44.97 327.6 11.9 325 22.8
2009-08-12 07:43:06 51°21.595 2°44.956 328.2 11.9 328 22.6
2009-08-12 07:43:11 51°21.609 2°44.942 329.1 11.9 328 22.7
2009-08-12 07:43:16 51°21.623 2°44.928 329.6 11.9 328 22.5
2009-08-12 07:43:21 51°21.637 2°44.914 329.6 11.9 327 22.7
2009-08-12 07:43:26 51°21.651 2°44.9 330.3 11.9 329 22.5
2009-08-12 07:43:31 51°21.665 2°44.886 330.8 11.9 328 22.4
2009-08-12 07:43:36 51°21.679 2°44.872 330.2 11.9 328 22.5
2009-08-12 07:43:41 51°21.693 2°44.859 330.3 11.9 329 22.6
2009-08-12 07:43:46 51°21.707 2°44.845 330.6 11.9 328 22.5
2009-08-12 07:43:51 51°21.721 2°44.83 330 11.9 325 22.3
2009-08-12 07:43:56 51°21.734 2°44.815 327.8 11.9 325 21.9
2009-08-12 07:44:01 51°21.748 2°44.799 327.3 11.9 324 21.5
2009-08-12 07:44:06 51°21.761 2°44.784 326.3 11.8 323 21.9
2009-08-12 07:44:11 51°21.773 2°44.767 324.5 11.8 321 22
2009-08-12 07:44:16 51°21.786 2°44.751 324.5 11.8 322 22.4
2009-08-12 07:44:21 51°21.799 2°44.735 323.7 11.8 320 22.4
2009-08-12 07:44:26 51°21.812 2°44.718 322.7 11.8 321 22.6
2009-08-12 07:44:31 51°21.824 2°44.702 322.7 11.8 321 22.6
2009-08-12 07:44:36 51°21.837 2°44.685 321.8 11.8 319 22.8
2009-08-12 07:44:41 51°21.849 2°44.668 321.6 11.8 321 23.1
2009-08-12 07:44:46 51°21.862 2°44.651 321.5 11.8 319 23.3
2009-08-12 07:44:51 51°21.875 2°44.634 321.4 11.8 321 23.1
2009-08-12 07:44:55 51°21.885 2°44.621 321.7 11.8 320 23.1
2009-08-12 07:45:01 51°21.9 2°44.601 321.2 11.7 320 23.1
2009-08-12 07:45:06 51°21.912 2°44.584 321.1 11.5 319 23.1
2009-08-12 07:45:11 51°21.923 2°44.567 320.7 11.4 319 22.1
2009-08-12 07:45:15 51°21.933 2°44.554 320 11.3 318 21.5
2009-08-12 07:45:21 51°21.947 2°44.534 319.8 11.2 318 22.4
2009-08-12 07:45:26 51°21.958 2°44.518 320.4 11.1 319 22.6
2009-08-12 07:45:31 51°21.969 2°44.502 320.3 11 319 22.6
2009-08-12 07:45:36 51°21.981 2°44.487 320.9 10.7 319 23
2009-08-12 07:45:41 51°21.992 2°44.472 320.9 10.4 320 23.3
2009-08-12 07:45:46 51°22.002 2°44.457 320.6 10.2 318 23.3
2009-08-12 07:45:51 51°22.013 2°44.443 320.5 9.8 320 23.2
2009-08-12 07:45:56 51°22.022 2°44.43 320.8 9.3 319 23.2
2009-08-12 07:46:01 51°22.031 2°44.418 320.9 8.7 320 23.5
2009-08-12 07:46:06 51°22.04 2°44.406 320.9 8.3 320 23.6
2009-08-12 07:46:11 51°22.049 2°44.395 321 8 321 23.3
2009-08-12 07:46:16 51°22.057 2°44.384 321 7.7 320 23.4
2009-08-12 07:46:21 51°22.064 2°44.374 320.9 7.3 321 23.6
2009-08-12 07:46:26 51°22.072 2°44.364 320.9 7 321 23.7
2009-08-12 07:46:31 51°22.079 2°44.355 320.8 6.8 321 23.3
2009-08-12 07:46:36 51°22.086 2°44.345 320.7 6.6 321 23.4
2009-08-12 07:46:41 51°22.093 2°44.337 320.2 6.3 320 23.1
2009-08-12 07:46:46 51°22.099 2°44.328 320.2 6.1 320 22.8
2009-08-12 07:46:51 51°22.106 2°44.319 319.9 6 320 22.4
2009-08-12 07:46:55 51°22.111 2°44.313 319.6 5.8 320 21.7
2009-08-12 07:47:01 51°22.118 2°44.304 319.3 5.5 319 22.4
2009-08-12 07:47:06 51°22.123 2°44.296 319.1 5.5 320 22.5
2009-08-12 07:47:11 51°22.129 2°44.288 318.7 5.3 319 22.7
2009-08-12 07:47:16 51°22.134 2°44.28 318.7 5.2 319 23.2
2009-08-12 07:47:21 51°22.14 2°44.273 318.7 5.1 319 23.5
2009-08-12 07:47:26 51°22.145 2°44.265 318.7 5.1 318 23.8
2009-08-12 07:47:30 51°22.149 2°44.26 319.2 5.2 319 24
2009-08-12 07:47:36 51°22.156 2°44.25 319.2 5.4 319 24
2009-08-12 07:47:41 51°22.162 2°44.242 319.4 5.6 320 24.1
2009-08-12 07:47:46 51°22.169 2°44.234 320.2 5.9 320 24.2
2009-08-12 07:47:51 51°22.175 2°44.225 320.4 6.3 320 24.1
2009-08-12 07:47:56 51°22.182 2°44.216 320.8 6.5 321 24.2
2009-08-12 07:48:01 51°22.19 2°44.206 320.9 6.8 320 24.1
2009-08-12 07:48:06 51°22.197 2°44.196 321.2 7.1 320 23.8
2009-08-12 07:48:11 51°22.205 2°44.185 321.3 7.3 320 24
2009-08-12 07:48:16 51°22.213 2°44.175 321.4 7.4 321 23.8
2009-08-12 07:48:21 51°22.221 2°44.164 321.6 7.5 320 23.5
2009-08-12 07:48:26 51°22.229 2°44.154 321.9 7.5 321 23.6
2009-08-12 07:48:31 51°22.237 2°44.143 322.1 7.4 321 23.4
2009-08-12 07:48:36 51°22.245 2°44.133 322.2 7.3 321 23.2
2009-08-12 07:48:41 51°22.252 2°44.123 322.2 7.1 321 23.2
2009-08-12 07:48:46 51°22.26 2°44.114 322.1 6.9 321 22.6
2009-08-12 07:48:50 51°22.265 2°44.106 321.7 6.7 320 22.7
2009-08-12 07:48:56 51°22.274 2°44.095 321.6 6.5 322 22.3
2009-08-12 07:49:01 51°22.281 2°44.086 321.6 6.4 321 23
2009-08-12 07:49:06 51°22.287 2°44.077 321.4 6.3 321 22.8
2009-08-12 07:49:11 51°22.294 2°44.069 321.6 6.2 322 22.9
2009-08-12 07:49:15 51°22.299 2°44.062 321.6 6.1 321 23.7
2009-08-12 07:49:21 51°22.307 2°44.052 321.4 5.9 321 24
2009-08-12 07:49:26 51°22.313 2°44.044 320.9 5.9 321 24.3
2009-08-12 07:49:31 51°22.319 2°44.036 320.8 5.8 321 24.7
2009-08-12 07:49:36 51°22.325 2°44.027 320.5 5.7 320 25
2009-08-12 07:49:41 51°22.331 2°44.019 320.5 5.7 321 24.9
2009-08-12 07:49:46 51°22.337 2°44.012 320.5 5.6 321 25.4
2009-08-12 07:49:51 51°22.343 2°44.004 320.6 5.6 321 25.5
2009-08-12 07:49:56 51°22.349 2°43.996 320.6 5.5 320 25.7
2009-08-12 07:50:01 51°22.355 2°43.988 320.4 5.5 320 25.7
2009-08-12 07:50:06 51°22.361 2°43.981 320.3 5.5 320 25.8
2009-08-12 07:50:11 51°22.367 2°43.973 320.2 5.4 320 25.9
2009-08-12 07:50:16 51°22.373 2°43.965 320.2 5.4 320 25.9
2009-08-12 07:50:21 51°22.378 2°43.958 320 5.4 320 25.9
2009-08-12 07:50:25 51°22.383 2°43.951 320 5.4 319 26.1
2009-08-12 07:50:31 51°22.39 2°43.942 319.8 5.4 320 26.4
2009-08-12 07:50:36 51°22.395 2°43.935 319.9 5.3 320 26.2
2009-08-12 07:50:41 51°22.401 2°43.927 319.8 5.3 319 26.2
2009-08-12 07:50:46 51°22.406 2°43.919 320 5.3 320 26.4
2009-08-12 07:50:51 51°22.412 2°43.912 320.1 5.2 320 26.1
2009-08-12 07:50:56 51°22.417 2°43.905 320.1 5.2 320 26.2
2009-08-12 07:51:01 51°22.423 2°43.897 320.5 5.2 321 26.5
2009-08-12 07:51:06 51°22.428 2°43.89 320.7 5.2 320 26.6
2009-08-12 07:51:11 51°22.434 2°43.882 320.7 5.2 320 26.4
2009-08-12 07:51:16 51°22.44 2°43.875 320.7 5.2 320 26.3
2009-08-12 07:51:21 51°22.445 2°43.867 320.7 5.2 319 26.3
2009-08-12 07:51:26 51°22.451 2°43.86 320.7 5.2 319 26.2
2009-08-12 07:51:31 51°22.456 2°43.852 320.6 5.2 320 26.5
2009-08-12 07:51:35 51°22.46 2°43.846 320.7 5.2 319 26.3
2009-08-12 07:51:41 51°22.467 2°43.837 320.7 5.2 319 26.3
2009-08-12 07:51:46 51°22.473 2°43.83 320.9 5.2 320 26.2
2009-08-12 07:51:51 51°22.478 2°43.822 321.3 5.2 320 26.3
2009-08-12 07:51:55 51°22.482 2°43.816 321.6 5.2 320 26.2
2009-08-12 07:52:01 51°22.489 2°43.807 321.6 5.3 320 26.1
2009-08-12 07:52:06 51°22.496 2°43.799 321.8 5.7 321 26.2
2009-08-12 07:52:11 51°22.503 2°43.79 322.2 6.6 320 26.3